Terminal Aerodrome Forecast
Issued by NWS

Home | Current Version | Previous Version | Text Only | Print | Product List | Glossary On
Versions: 1 2 3 4 5 6 7 8 9 10 11 12 13 14
000
FTUS44 KBMX 222343
TAFEET
TAF
KEET 222343Z 2300/2324 12005KT P6SM -RA SCT050 BKN060 OVC150
     FM230400 15007G18KT 3SM SHRA OVC020
     FM230900 23007KT 3SM -SHRA BR OVC008
     FM231200 28009KT P6SM VCSH OVC015=

USA.gov is the U.S. government's official web portal to all federal, state and local government web resources and services.